Time;durP1;ratioP1;P1;durP2;ratioP2;P2;SDS_P1;SDS_P2;PMS_P1;PMS_P2;Temp;Humidity;BMP_temperature;BMP_pressure;BME280_temperature;BME280_humidity;BME280_pressure;Samples;Min_cycle;Max_cycle;Signal;HPM_P1;HPM_P2
2023/07/19 00:02:20;;;;;;;153.95;146.40;;;;;;;;;;5017555;28;20150;-73
2023/07/19 00:04:47;;;;;;;158.48;150.73;;;;;;;;;;5018633;28;20030;-74
2023/07/19 00:07:12;;;;;;;151.35;143.90;;;;;;;;;;5019601;28;20048;-73
2023/07/19 00:09:38;;;;;;;169.90;161.38;;;;;;;;;;5021938;28;20691;-68
2023/07/19 00:12:04;;;;;;;147.10;139.88;;;;;;;;;;5018703;28;20076;-72
2023/07/19 00:14:30;;;;;;;171.65;163.30;;;;;;;;;;5014235;28;20375;-73
2023/07/19 00:16:55;;;;;;;178.23;169.63;;;;;;;;;;5021910;28;20030;-73
2023/07/19 00:19:20;;;;;;;137.75;131.00;;;;;;;;;;5019422;28;20107;-73
2023/07/19 00:21:46;;;;;;;133.30;126.70;;;;;;;;;;5020987;28;20030;-73
2023/07/19 00:24:12;;;;;;;147.43;140.20;;;;;;;;;;5018112;28;20060;-72
2023/07/19 00:26:37;;;;;;;146.23;139.05;;;;;;;;;;5021570;28;20116;-67
2023/07/19 00:29:02;;;;;;;143.75;136.52;;;;;;;;;;5020218;28;20057;-72
2023/07/19 00:31:28;;;;;;;147.35;140.13;;;;;;;;;;5019876;28;20037;-67
2023/07/19 00:33:53;;;;;;;123.10;117.05;;;;;;;;;;5022555;28;20427;-67
2023/07/19 00:36:18;;;;;;;102.25;97.22;;;;;;;;;;5018476;28;20038;-67
2023/07/19 00:38:44;;;;;;;115.72;110.00;;;;;;;;;;5018688;28;20494;-73
2023/07/19 00:41:09;;;;;;;130.60;124.20;;;;;;;;;;5016682;28;20124;-73
2023/07/19 00:43:36;;;;;;;105.63;100.45;;;;;;;;;;5019931;28;20041;-73
2023/07/19 00:46:01;;;;;;;111.45;105.95;;;;;;;;;;5020301;28;20371;-67
2023/07/19 00:48:27;;;;;;;99.85;94.93;;;;;;;;;;5019061;28;20034;-67
2023/07/19 00:50:53;;;;;;;97.38;92.57;;;;;;;;;;5017897;28;20438;-67
2023/07/19 00:53:20;;;;;;;105.28;100.10;;;;;;;;;;5019082;28;20117;-67
2023/07/19 00:55:48;;;;;;;117.68;111.90;;;;;;;;;;5020922;28;20036;-67
2023/07/19 00:58:14;;;;;;;110.47;105.07;;;;;;;;;;5017556;28;20038;-67
2023/07/19 01:00:39;;;;;;;95.95;91.20;;;;;;;;;;5017772;28;20369;-67
2023/07/19 01:03:05;;;;;;;101.60;96.57;;;;;;;;;;5018813;28;20038;-67
2023/07/19 01:05:31;;;;;;;126.13;119.45;;;;;;;;;;5022232;28;20029;-72
2023/07/19 01:07:58;;;;;;;98.88;93.97;;;;;;;;;;5017190;28;20046;-73
2023/07/19 01:10:25;;;;;;;103.93;98.85;;;;;;;;;;5018120;28;20033;-72
2023/07/19 01:13:11;;;;;;;110.82;105.25;;;;;;;;;;5019677;28;20041;-72
2023/07/19 01:15:38;;;;;;;115.93;110.05;;;;;;;;;;5013372;28;20033;-68
2023/07/19 01:18:04;;;;;;;126.68;120.45;;;;;;;;;;5016351;28;20041;-67
2023/07/19 01:20:30;;;;;;;122.22;116.18;;;;;;;;;;5020510;28;20073;-67
2023/07/19 01:22:56;;;;;;;119.65;113.75;;;;;;;;;;5015646;28;20520;-69
2023/07/19 01:25:22;;;;;;;96.18;91.45;;;;;;;;;;5015813;28;20042;-67
2023/07/19 01:27:47;;;;;;;63.83;60.63;;;;;;;;;;5014440;28;20037;-67
2023/07/19 01:30:13;;;;;;;43.35;41.13;;;;;;;;;;5016634;28;20034;-67
2023/07/19 01:32:38;;;;;;;27.33;25.88;;;;;;;;;;5018593;28;20056;-72
2023/07/19 01:35:04;;;;;;;18.85;17.77;;;;;;;;;;5016968;28;20050;-72
2023/07/19 01:37:29;;;;;;;15.23;14.32;;;;;;;;;;5017227;28;20040;-67
2023/07/19 01:39:55;;;;;;;15.93;14.73;;;;;;;;;;5017424;28;20055;-67
2023/07/19 01:42:20;;;;;;;14.63;13.75;;;;;;;;;;5016656;28;20037;-67
2023/07/19 01:44:45;;;;;;;14.52;13.63;;;;;;;;;;5016469;28;20084;-67
2023/07/19 01:47:11;;;;;;;13.48;12.68;;;;;;;;;;5015702;28;20476;-67
2023/07/19 01:49:39;;;;;;;15.68;14.50;;;;;;;;;;5018402;28;20098;-67
2023/07/19 01:52:04;;;;;;;14.52;13.73;;;;;;;;;;5016340;28;20049;-67
2023/07/19 01:54:30;;;;;;;17.55;16.45;;;;;;;;;;5019775;28;20030;-71
2023/07/19 01:56:55;;;;;;;22.65;21.35;;;;;;;;;;5018600;28;20400;-72
2023/07/19 01:59:20;;;;;;;25.92;24.52;;;;;;;;;;5013948;28;20045;-72
2023/07/19 02:01:46;;;;;;;27.70;26.25;;;;;;;;;;5019322;28;20041;-67
2023/07/19 02:04:11;;;;;;;30.92;29.30;;;;;;;;;;5016480;28;20045;-70
2023/07/19 02:06:36;;;;;;;34.92;33.13;;;;;;;;;;5018775;28;20042;-71
2023/07/19 02:09:03;;;;;;;35.70;33.05;;;;;;;;;;5016325;28;20060;-71
2023/07/19 02:11:28;;;;;;;38.15;35.85;;;;;;;;;;5020130;28;20401;-66
2023/07/19 02:13:53;;;;;;;33.20;31.50;;;;;;;;;;5014646;28;20523;-71
2023/07/19 02:16:19;;;;;;;32.63;30.90;;;;;;;;;;5016737;28;20597;-71
2023/07/19 02:18:45;;;;;;;32.17;30.45;;;;;;;;;;5015582;28;20036;-70
2023/07/19 02:21:10;;;;;;;31.13;29.50;;;;;;;;;;5016087;28;20040;-71
2023/07/19 02:23:35;;;;;;;32.22;30.55;;;;;;;;;;5018783;28;20419;-66
2023/07/19 02:26:01;;;;;;;30.90;29.23;;;;;;;;;;5016042;28;20739;-70
2023/07/19 02:28:26;;;;;;;29.83;28.27;;;;;;;;;;5017262;28;20034;-66
2023/07/19 02:30:51;;;;;;;28.27;26.80;;;;;;;;;;5015349;28;20091;-71
2023/07/19 02:33:17;;;;;;;27.40;25.95;;;;;;;;;;5015034;28;20041;-71
2023/07/19 02:35:43;;;;;;;26.38;24.95;;;;;;;;;;5018423;28;20021;-66
2023/07/19 02:38:09;;;;;;;27.52;26.08;;;;;;;;;;5013230;28;20034;-66
2023/07/19 02:40:34;;;;;;;26.30;24.70;;;;;;;;;;5014544;28;20416;-70
2023/07/19 02:43:00;;;;;;;24.35;23.05;;;;;;;;;;5020527;28;20033;-71
2023/07/19 02:45:25;;;;;;;23.23;21.98;;;;;;;;;;5019265;28;20034;-71
2023/07/19 02:47:50;;;;;;;24.27;22.95;;;;;;;;;;5016643;28;20371;-70
2023/07/19 02:50:19;;;;;;;23.00;21.70;;;;;;;;;;5017825;28;20037;-71
2023/07/19 02:52:45;;;;;;;21.20;20.02;;;;;;;;;;5017677;28;20589;-70
2023/07/19 02:55:11;;;;;;;21.90;20.67;;;;;;;;;;5016343;28;20555;-70
2023/07/19 02:57:36;;;;;;;23.33;22.00;;;;;;;;;;5019120;28;20299;-71
2023/07/19 03:00:02;;;;;;;21.60;20.38;;;;;;;;;;5015888;28;20128;-70
2023/07/19 03:02:27;;;;;;;22.30;21.13;;;;;;;;;;5015813;28;20109;-66
2023/07/19 03:04:52;;;;;;;20.10;18.95;;;;;;;;;;5017554;28;20459;-70
2023/07/19 03:07:18;;;;;;;18.25;17.20;;;;;;;;;;5014156;28;20025;-71
2023/07/19 03:09:43;;;;;;;19.75;18.55;;;;;;;;;;5017590;28;20030;-71
2023/07/19 03:12:09;;;;;;;18.73;17.67;;;;;;;;;;5019890;28;20547;-66
2023/07/19 03:14:34;;;;;;;20.85;19.55;;;;;;;;;;5014490;28;20045;-66
2023/07/19 03:16:59;;;;;;;21.15;19.98;;;;;;;;;;5020406;28;20030;-66
2023/07/19 03:19:25;;;;;;;17.70;16.73;;;;;;;;;;5014890;28;20722;-66
2023/07/19 03:21:50;;;;;;;15.52;14.63;;;;;;;;;;5016486;28;20029;-66
2023/07/19 03:24:16;;;;;;;16.33;15.13;;;;;;;;;;5013211;28;20038;-66
2023/07/19 03:26:41;;;;;;;18.13;17.10;;;;;;;;;;5014171;28;20033;-66
2023/07/19 03:29:06;;;;;;;23.20;21.90;;;;;;;;;;5015702;28;20087;-66
2023/07/19 03:31:32;;;;;;;23.42;22.02;;;;;;;;;;5016016;28;20064;-71
2023/07/19 03:33:57;;;;;;;22.95;21.75;;;;;;;;;;5014519;28;20034;-66
2023/07/19 03:36:23;;;;;;;24.45;23.15;;;;;;;;;;5015985;28;20040;-66
2023/07/19 03:38:48;;;;;;;25.15;23.75;;;;;;;;;;5014664;28;20026;-66
2023/07/19 03:41:14;;;;;;;24.65;23.30;;;;;;;;;;5015280;28;20754;-66
2023/07/19 03:43:39;;;;;;;30.25;28.58;;;;;;;;;;5020901;28;20033;-66
2023/07/19 03:46:05;;;;;;;30.35;28.77;;;;;;;;;;5020358;28;20037;-66
2023/07/19 03:48:31;;;;;;;43.90;41.60;;;;;;;;;;5016793;28;20460;-66
2023/07/19 03:50:58;;;;;;;45.30;42.97;;;;;;;;;;5018747;28;20076;-66
2023/07/19 03:53:23;;;;;;;73.05;69.30;;;;;;;;;;5015480;28;21603;-66
2023/07/19 03:55:55;;;;;;;99.40;94.38;;;;;;;;;;5022670;28;20049;-71
2023/07/19 03:58:24;;;;;;;109.30;103.78;;;;;;;;;;5019421;28;20025;-66
2023/07/19 04:00:54;;;;;;;99.70;94.22;;;;;;;;;;5022801;28;20029;-66
2023/07/19 04:03:20;;;;;;;122.22;115.95;;;;;;;;;;5017668;28;20041;-71
2023/07/19 04:05:45;;;;;;;90.65;85.90;;;;;;;;;;5020567;28;20549;-66
2023/07/19 04:08:13;;;;;;;112.50;106.88;;;;;;;;;;5019772;28;20034;-70
2023/07/19 04:10:38;;;;;;;71.65;67.95;;;;;;;;;;5020943;28;20061;-66
2023/07/19 04:13:04;;;;;;;98.20;93.32;;;;;;;;;;5018551;28;20091;-66
2023/07/19 04:15:29;;;;;;;101.88;96.82;;;;;;;;;;5018851;28;20044;-71
2023/07/19 04:17:55;;;;;;;73.53;69.85;;;;;;;;;;5019242;28;20512;-66
2023/07/19 04:20:22;;;;;;;101.13;96.05;;;;;;;;;;5018125;28;20043;-71
2023/07/19 04:22:48;;;;;;;105.65;100.45;;;;;;;;;;5019762;28;20038;-71
2023/07/19 04:25:13;;;;;;;103.15;97.90;;;;;;;;;;5019556;28;20425;-71
2023/07/19 04:27:39;;;;;;;95.13;90.25;;;;;;;;;;5016066;28;20124;-71
2023/07/19 04:30:05;;;;;;;88.80;84.35;;;;;;;;;;5018786;28;20080;-71
2023/07/19 04:32:31;;;;;;;80.32;76.32;;;;;;;;;;5019320;28;20040;-71
2023/07/19 04:34:58;;;;;;;81.72;77.45;;;;;;;;;;5019560;28;20399;-71
2023/07/19 04:37:23;;;;;;;71.57;67.95;;;;;;;;;;5015360;28;20033;-68
2023/07/19 04:39:49;;;;;;;56.05;53.17;;;;;;;;;;5017782;28;20033;-69
2023/07/19 04:42:15;;;;;;;65.65;62.35;;;;;;;;;;5018432;28;20045;-67
2023/07/19 04:44:41;;;;;;;53.45;50.75;;;;;;;;;;5019678;28;20045;-68
2023/07/19 04:47:06;;;;;;;44.25;41.97;;;;;;;;;;5018527;28;20034;-68
2023/07/19 04:49:31;;;;;;;28.02;26.52;;;;;;;;;;5017020;28;20033;-68
2023/07/19 04:51:58;;;;;;;22.45;21.17;;;;;;;;;;5017600;28;20117;-68
2023/07/19 04:54:24;;;;;;;21.23;20.05;;;;;;;;;;5018092;28;20065;-68
2023/07/19 04:56:49;;;;;;;18.25;17.20;;;;;;;;;;5019326;28;20127;-68
2023/07/19 04:59:15;;;;;;;21.08;19.45;;;;;;;;;;5017370;28;20029;-68
2023/07/19 05:01:40;;;;;;;20.55;19.35;;;;;;;;;;5016346;28;20040;-68
2023/07/19 05:04:05;;;;;;;20.38;19.05;;;;;;;;;;5017483;28;20064;-68
2023/07/19 05:06:31;;;;;;;15.82;14.93;;;;;;;;;;5018032;28;20037;-68
2023/07/19 05:08:57;;;;;;;14.95;14.05;;;;;;;;;;5017304;28;20134;-68
2023/07/19 05:11:25;;;;;;;15.15;14.25;;;;;;;;;;5017469;28;20025;-68
2023/07/19 05:13:50;;;;;;;14.13;13.20;;;;;;;;;;5017627;28;20040;-68
2023/07/19 05:16:16;;;;;;;15.25;14.25;;;;;;;;;;5016038;28;20372;-68
2023/07/19 05:18:41;;;;;;;16.42;15.43;;;;;;;;;;5019133;28;20116;-69
2023/07/19 05:21:07;;;;;;;16.30;15.30;;;;;;;;;;5018038;28;20375;-68
2023/07/19 05:23:32;;;;;;;18.10;17.10;;;;;;;;;;5016916;28;20053;-65
2023/07/19 05:25:58;;;;;;;17.45;16.45;;;;;;;;;;5018279;28;20112;-65
2023/07/19 05:28:23;;;;;;;20.85;19.65;;;;;;;;;;5016044;28;20029;-66
2023/07/19 05:30:49;;;;;;;21.98;20.45;;;;;;;;;;5015586;28;20105;-65
2023/07/19 05:33:15;;;;;;;17.83;16.17;;;;;;;;;;5023930;28;20510;-65
2023/07/19 05:35:42;;;;;;;22.70;21.50;;;;;;;;;;5029473;28;20041;-65
2023/07/19 05:38:08;;;;;;;20.20;19.10;;;;;;;;;;5017414;28;20034;-65
2023/07/19 05:40:33;;;;;;;23.98;22.65;;;;;;;;;;5014236;28;20044;-65
2023/07/19 05:42:58;;;;;;;19.30;18.23;;;;;;;;;;5017312;28;20033;-66
2023/07/19 05:45:24;;;;;;;17.67;16.67;;;;;;;;;;5016452;28;20034;-66
2023/07/19 05:47:49;;;;;;;17.83;16.83;;;;;;;;;;5016175;28;20133;-66
2023/07/19 05:50:14;;;;;;;22.65;21.40;;;;;;;;;;5015980;28;20088;-66
2023/07/19 05:52:40;;;;;;;21.52;20.23;;;;;;;;;;5025122;28;20056;-66
2023/07/19 05:55:08;;;;;;;20.38;19.20;;;;;;;;;;5015649;28;20045;-66
2023/07/19 05:57:34;;;;;;;19.90;18.80;;;;;;;;;;5018476;28;20034;-66
2023/07/19 06:00:13;;;;;;;15.63;14.63;;;;;;;;;;5019280;28;20603;-66
2023/07/19 06:02:39;;;;;;;16.48;15.50;;;;;;;;;;5016427;28;20041;-66
2023/07/19 06:05:06;;;;;;;20.13;18.80;;;;;;;;;;5016860;28;20037;-66
2023/07/19 06:07:32;;;;;;;30.13;28.42;;;;;;;;;;5015057;28;20413;-66
2023/07/19 06:09:57;;;;;;;38.05;36.08;;;;;;;;;;5017884;28;20072;-66
2023/07/19 06:12:23;;;;;;;48.03;45.60;;;;;;;;;;5015478;28;20121;-66
2023/07/19 06:14:48;;;;;;;48.92;46.42;;;;;;;;;;5014449;28;20061;-66
2023/07/19 06:17:13;;;;;;;49.17;46.63;;;;;;;;;;5016587;28;20033;-67
2023/07/19 06:19:39;;;;;;;35.33;33.42;;;;;;;;;;5017001;28;20037;-66
2023/07/19 06:22:04;;;;;;;35.70;33.90;;;;;;;;;;5010327;28;20049;-67
2023/07/19 06:24:29;;;;;;;43.33;41.03;;;;;;;;;;5014758;28;20061;-67
2023/07/19 06:26:55;;;;;;;32.75;30.95;;;;;;;;;;5016140;28;20432;-66
2023/07/19 06:29:21;;;;;;;48.28;45.80;;;;;;;;;;5012905;28;20428;-67
2023/07/19 06:31:47;;;;;;;39.10;37.08;;;;;;;;;;5014812;28;20455;-67
2023/07/19 06:34:12;;;;;;;56.33;53.47;;;;;;;;;;5015213;28;20123;-67
2023/07/19 06:36:37;;;;;;;72.78;69.13;;;;;;;;;;5016823;28;20100;-73
2023/07/19 06:39:03;;;;;;;99.15;93.97;;;;;;;;;;5014631;28;20041;-73
2023/07/19 06:41:28;;;;;;;137.02;130.27;;;;;;;;;;5014143;28;20026;-73
2023/07/19 06:43:54;;;;;;;111.57;106.13;;;;;;;;;;5013557;28;20374;-72
2023/07/19 06:46:20;;;;;;;172.55;164.18;;;;;;;;;;5016976;28;20037;-73
2023/07/19 06:48:46;;;;;;;125.25;119.13;;;;;;;;;;5016479;28;20030;-73
2023/07/19 06:51:12;;;;;;;85.22;80.90;;;;;;;;;;5021353;28;20216;-73
2023/07/19 06:53:37;;;;;;;155.70;148.02;;;;;;;;;;5015877;28;20443;-72
2023/07/19 06:56:03;;;;;;;77.90;73.95;;;;;;;;;;5012343;28;20353;-72
2023/07/19 06:58:28;;;;;;;74.13;70.45;;;;;;;;;;5012360;28;20018;-68
2023/07/19 07:00:55;;;;;;;59.33;56.35;;;;;;;;;;5014039;28;20396;-68
2023/07/19 07:03:21;;;;;;;123.05;116.95;;;;;;;;;;5015052;28;20033;-68
2023/07/19 07:05:47;;;;;;;162.48;153.75;;;;;;;;;;5014795;28;20097;-68
2023/07/19 07:08:12;;;;;;;120.45;114.50;;;;;;;;;;5012086;28;20057;-68
2023/07/19 07:10:41;;;;;;;160.82;152.90;;;;;;;;;;5017617;28;20044;-68
2023/07/19 07:13:06;;;;;;;174.88;166.27;;;;;;;;;;5011512;28;20037;-72
2023/07/19 07:15:31;;;;;;;117.88;111.95;;;;;;;;;;5015834;28;20108;-72
2023/07/19 07:17:57;;;;;;;160.38;152.45;;;;;;;;;;5015089;28;20037;-68
2023/07/19 07:20:22;;;;;;;149.65;142.23;;;;;;;;;;5020088;28;20097;-68
2023/07/19 07:22:48;;;;;;;148.15;140.80;;;;;;;;;;5019358;28;20030;-68
2023/07/19 07:25:13;;;;;;;156.77;149.02;;;;;;;;;;5016481;28;20480;-68
2023/07/19 07:27:38;;;;;;;143.95;136.85;;;;;;;;;;5017572;28;20045;-68
2023/07/19 07:30:07;;;;;;;141.40;134.35;;;;;;;;;;5017252;28;20499;-68
2023/07/19 07:32:33;;;;;;;154.40;146.55;;;;;;;;;;5018001;28;20410;-68
2023/07/19 07:34:59;;;;;;;162.23;154.20;;;;;;;;;;5022281;28;20103;-68
2023/07/19 07:37:24;;;;;;;159.20;151.20;;;;;;;;;;5015814;28;20140;-68
2023/07/19 07:39:50;;;;;;;164.25;156.15;;;;;;;;;;5021063;28;20440;-68
2023/07/19 07:42:15;;;;;;;153.13;145.57;;;;;;;;;;5018877;28;20451;-68
2023/07/19 07:44:40;;;;;;;137.30;130.07;;;;;;;;;;5019051;28;20451;-68
2023/07/19 07:47:06;;;;;;;118.18;112.35;;;;;;;;;;5019364;28;20040;-68
2023/07/19 07:49:31;;;;;;;70.32;66.82;;;;;;;;;;5018897;28;20030;-68
2023/07/19 07:51:57;;;;;;;59.30;56.22;;;;;;;;;;5015238;28;20762;-68
2023/07/19 07:54:22;;;;;;;54.42;51.72;;;;;;;;;;5018610;28;20049;-68
2023/07/19 07:56:48;;;;;;;45.22;42.92;;;;;;;;;;5021045;28;20025;-68
2023/07/19 07:59:14;;;;;;;119.10;113.22;;;;;;;;;;5016094;28;20025;-68
2023/07/19 08:01:41;;;;;;;77.45;73.63;;;;;;;;;;5015847;28;20444;-68
2023/07/19 08:04:09;;;;;;;58.25;55.35;;;;;;;;;;5012861;28;20033;-69
2023/07/19 08:06:35;;;;;;;124.15;118.03;;;;;;;;;;5017788;28;20083;-68
2023/07/19 08:09:01;;;;;;;35.50;33.67;;;;;;;;;;5019223;28;20046;-68
2023/07/19 08:11:26;;;;;;;31.58;29.95;;;;;;;;;;5019381;28;20108;-68
2023/07/19 08:13:52;;;;;;;39.42;37.35;;;;;;;;;;5020426;28;20061;-68
2023/07/19 08:16:18;;;;;;;29.88;28.27;;;;;;;;;;5015525;28;20395;-68
2023/07/19 08:18:43;;;;;;;30.60;29.00;;;;;;;;;;5017134;28;20030;-68
2023/07/19 08:21:09;;;;;;;28.60;26.98;;;;;;;;;;5020332;28;20560;-68
2023/07/19 08:23:34;;;;;;;30.65;28.95;;;;;;;;;;5018716;28;20030;-68
2023/07/19 08:25:59;;;;;;;38.80;36.75;;;;;;;;;;5017860;28;20183;-68
2023/07/19 08:28:25;;;;;;;68.20;64.75;;;;;;;;;;5013894;28;20378;-68
2023/07/19 08:30:51;;;;;;;28.42;26.92;;;;;;;;;;5018020;28;20044;-68
2023/07/19 08:33:17;;;;;;;32.28;30.58;;;;;;;;;;5015915;28;20029;-68
2023/07/19 08:35:42;;;;;;;53.88;51.15;;;;;;;;;;5020578;28;20132;-68
2023/07/19 08:38:07;;;;;;;67.90;64.50;;;;;;;;;;5016585;28;20376;-68
2023/07/19 08:40:37;;;;;;;88.90;84.53;;;;;;;;;;5017294;28;20056;-71
2023/07/19 08:43:06;;;;;;;129.13;122.68;;;;;;;;;;5019013;28;20463;-72
2023/07/19 08:45:35;;;;;;;94.47;89.82;;;;;;;;;;5017099;28;20460;-72
2023/07/19 08:48:00;;;;;;;111.03;105.55;;;;;;;;;;5017421;28;20056;-72
2023/07/19 08:50:27;;;;;;;137.45;130.70;;;;;;;;;;5016676;28;20049;-73
2023/07/19 08:52:53;;;;;;;167.10;158.85;;;;;;;;;;5021502;28;20096;-68
2023/07/19 08:55:20;;;;;;;54.17;51.45;;;;;;;;;;5016508;28;20132;-68
2023/07/19 08:57:45;;;;;;;160.32;152.40;;;;;;;;;;5018055;28;20044;-68
2023/07/19 09:00:15;;;;;;;153.90;146.25;;;;;;;;;;5015681;28;20041;-68
2023/07/19 09:02:41;;;;;;;138.10;131.30;;;;;;;;;;5017347;28;20430;-72
2023/07/19 09:05:07;;;;;;;137.63;130.82;;;;;;;;;;5014719;28;20034;-73
2023/07/19 09:07:33;;;;;;;147.65;140.38;;;;;;;;;;5017066;28;20041;-73
2023/07/19 09:09:59;;;;;;;136.40;129.68;;;;;;;;;;5018990;28;20432;-73
2023/07/19 09:12:25;;;;;;;129.32;123.00;;;;;;;;;;5017954;28;20129;-73
2023/07/19 09:14:50;;;;;;;111.80;106.25;;;;;;;;;;5015611;28;20030;-73
2023/07/19 09:17:16;;;;;;;47.85;45.42;;;;;;;;;;5016253;28;20124;-73
2023/07/19 09:19:42;;;;;;;34.78;32.97;;;;;;;;;;5018403;28;20128;-72
2023/07/19 09:22:09;;;;;;;23.48;22.17;;;;;;;;;;5017663;28;20045;-73
2023/07/19 09:24:35;;;;;;;38.88;36.88;;;;;;;;;;5015738;28;20033;-72
2023/07/19 09:27:00;;;;;;;17.08;16.08;;;;;;;;;;5015395;28;20037;-68
2023/07/19 09:29:31;;;;;;;29.50;27.98;;;;;;;;;;5018408;28;20068;-68
2023/07/19 09:32:01;;;;;;;18.73;17.73;;;;;;;;;;5011600;28;20639;-68
2023/07/19 09:34:28;;;;;;;17.83;16.83;;;;;;;;;;5014030;28;20050;-68
2023/07/19 09:36:54;;;;;;;17.75;16.75;;;;;;;;;;5016275;28;20029;-71
2023/07/19 09:39:21;;;;;;;29.25;27.70;;;;;;;;;;5014834;28;20505;-68
2023/07/19 09:41:47;;;;;;;19.98;18.88;;;;;;;;;;5012496;28;20046;-68
2023/07/19 09:44:15;;;;;;;23.90;22.60;;;;;;;;;;5015409;28;20040;-71
2023/07/19 09:46:42;;;;;;;36.10;34.25;;;;;;;;;;5019928;28;20079;-71
2023/07/19 09:49:08;;;;;;;32.22;30.52;;;;;;;;;;5017272;28;20220;-71
2023/07/19 09:51:35;;;;;;;36.35;34.42;;;;;;;;;;5017721;28;20302;-71
2023/07/19 09:54:04;;;;;;;49.15;46.65;;;;;;;;;;5016270;28;20044;-71
2023/07/19 09:56:29;;;;;;;35.33;33.53;;;;;;;;;;5016494;28;20042;-69
2023/07/19 09:58:55;;;;;;;39.58;37.55;;;;;;;;;;5016056;28;20033;-71
2023/07/19 10:01:22;;;;;;;51.85;49.28;;;;;;;;;;5014674;28;20041;-69
2023/07/19 10:03:47;;;;;;;65.05;61.75;;;;;;;;;;5014345;28;20044;-69
2023/07/19 10:06:14;;;;;;;58.05;54.92;;;;;;;;;;5017456;28;20037;-68
2023/07/19 10:08:40;;;;;;;61.75;58.65;;;;;;;;;;5014543;28;20052;-71
2023/07/19 10:11:05;;;;;;;52.25;49.58;;;;;;;;;;5016496;28;20038;-71
2023/07/19 10:13:52;;;;;;;59.13;56.15;;;;;;;;;;5017972;28;20053;-68
2023/07/19 10:16:24;;;;;;;50.67;48.08;;;;;;;;;;5022935;28;20891;-69
2023/07/19 10:19:11;;;;;;;59.50;56.50;;;;;;;;;;5016325;28;20029;-69
2023/07/19 10:21:37;;;;;;;72.32;68.72;;;;;;;;;;5010874;28;20034;-69
2023/07/19 10:24:06;;;;;;;51.22;48.63;;;;;;;;;;5015202;28;20052;-70
2023/07/19 10:26:35;;;;;;;55.67;52.88;;;;;;;;;;5011922;28;20030;-70
2023/07/19 10:29:01;;;;;;;46.05;43.65;;;;;;;;;;5013997;28;20376;-69
2023/07/19 10:31:26;;;;;;;35.88;34.00;;;;;;;;;;5014680;28;20060;-68
2023/07/19 10:33:55;;;;;;;30.30;28.70;;;;;;;;;;5020451;28;20507;-69
2023/07/19 10:36:21;;;;;;;28.30;26.80;;;;;;;;;;5016135;28;20375;-69
2023/07/19 10:38:46;;;;;;;31.33;29.63;;;;;;;;;;5014169;28;20025;-70
2023/07/19 10:41:13;;;;;;;26.27;24.88;;;;;;;;;;5015079;28;20115;-69
2023/07/19 10:43:38;;;;;;;26.23;24.83;;;;;;;;;;5014630;28;20033;-69
2023/07/19 10:46:05;;;;;;;35.63;33.83;;;;;;;;;;5015720;28;20048;-69
2023/07/19 10:48:38;;;;;;;22.73;21.42;;;;;;;;;;5013197;28;20545;-69
2023/07/19 10:51:05;;;;;;;23.83;22.52;;;;;;;;;;5014326;28;20124;-69
2023/07/19 10:53:40;;;;;;;26.02;24.60;;;;;;;;;;5016128;28;20447;-69
2023/07/19 10:56:06;;;;;;;23.02;21.80;;;;;;;;;;5018766;28;20580;-69
2023/07/19 10:58:31;;;;;;;42.67;40.50;;;;;;;;;;5017989;28;20032;-69
2023/07/19 11:00:57;;;;;;;30.00;28.45;;;;;;;;;;5021100;28;20041;-68
2023/07/19 11:03:26;;;;;;;43.85;41.63;;;;;;;;;;5018843;28;20117;-69
2023/07/19 11:05:52;;;;;;;41.10;38.95;;;;;;;;;;5018859;28;20443;-68
2023/07/19 11:08:25;;;;;;;31.92;30.25;;;;;;;;;;5018792;28;20383;-69
2023/07/19 11:10:54;;;;;;;26.70;25.30;;;;;;;;;;5021634;28;20113;-69
2023/07/19 11:13:21;;;;;;;24.17;22.88;;;;;;;;;;5015877;28;22072;-69
2023/07/19 11:15:51;;;;;;;30.23;28.65;;;;;;;;;;5017610;28;20033;-69
2023/07/19 11:18:35;;;;;;;20.10;19.00;;;;;;;;;;5018204;28;20119;-70
2023/07/19 11:21:00;;;;;;;24.08;22.77;;;;;;;;;;5021905;28;20037;-71
2023/07/19 11:23:27;;;;;;;21.48;20.15;;;;;;;;;;5017242;28;20046;-70
2023/07/19 11:26:06;;;;;;;26.35;24.95;;;;;;;;;;5019415;28;20029;-68
2023/07/19 11:28:48;;;;;;;20.85;19.65;;;;;;;;;;5018266;28;20034;-70
2023/07/19 11:31:33;;;;;;;24.85;23.55;;;;;;;;;;5018309;28;20053;-69
2023/07/19 11:34:09;;;;;;;23.77;22.48;;;;;;;;;;5017333;28;20026;-70
2023/07/19 11:36:40;;;;;;;23.55;22.25;;;;;;;;;;5018338;28;20526;-70
2023/07/19 11:39:12;;;;;;;22.75;21.55;;;;;;;;;;5017267;28;20468;-69
2023/07/19 11:41:37;;;;;;;22.30;21.10;;;;;;;;;;5017299;28;20072;-69
2023/07/19 11:44:03;;;;;;;27.42;26.00;;;;;;;;;;5019289;28;20029;-69
2023/07/19 11:46:28;;;;;;;22.08;20.88;;;;;;;;;;5018165;28;20108;-69
2023/07/19 11:48:54;;;;;;;26.10;24.70;;;;;;;;;;5020709;28;20057;-70
2023/07/19 11:51:19;;;;;;;21.80;20.50;;;;;;;;;;5017928;28;20038;-69
2023/07/19 11:53:44;;;;;;;22.05;20.75;;;;;;;;;;5020089;28;20044;-69
2023/07/19 11:56:10;;;;;;;22.73;21.52;;;;;;;;;;5016512;28;20037;-70
2023/07/19 11:58:35;;;;;;;27.77;26.27;;;;;;;;;;5018400;28;20061;-70
2023/07/19 12:01:02;;;;;;;24.00;22.70;;;;;;;;;;5018757;28;20033;-69
2023/07/19 12:03:27;;;;;;;38.08;36.05;;;;;;;;;;5015849;28;20041;-69
2023/07/19 12:05:53;;;;;;;29.08;27.48;;;;;;;;;;5018336;28;20030;-69
2023/07/19 12:08:18;;;;;;;26.40;25.00;;;;;;;;;;5015427;28;20404;-69
2023/07/19 12:10:43;;;;;;;33.97;32.17;;;;;;;;;;5020339;28;20113;-69
2023/07/19 12:13:09;;;;;;;31.52;29.92;;;;;;;;;;5018411;28;20368;-68
2023/07/19 12:15:34;;;;;;;34.65;32.40;;;;;;;;;;5015681;28;20597;-69
2023/07/19 12:18:00;;;;;;;27.55;25.98;;;;;;;;;;5016529;28;20455;-68
2023/07/19 12:20:26;;;;;;;38.10;36.13;;;;;;;;;;5017631;28;20120;-69
2023/07/19 12:22:51;;;;;;;39.50;37.50;;;;;;;;;;5017371;28;20033;-69
2023/07/19 12:25:17;;;;;;;41.58;39.45;;;;;;;;;;5017493;28;20042;-69
2023/07/19 12:27:43;;;;;;;30.83;29.23;;;;;;;;;;5015087;28;20056;-69
2023/07/19 12:30:10;;;;;;;42.60;40.40;;;;;;;;;;5015421;28;20103;-69
2023/07/19 12:32:35;;;;;;;40.65;38.55;;;;;;;;;;5017585;28;20037;-69
2023/07/19 12:35:01;;;;;;;26.58;25.17;;;;;;;;;;5019558;28;20149;-71
2023/07/19 12:37:27;;;;;;;42.33;40.17;;;;;;;;;;5014324;28;20033;-70
2023/07/19 12:39:52;;;;;;;43.33;41.13;;;;;;;;;;5016169;28;20036;-71
2023/07/19 12:42:18;;;;;;;40.30;38.20;;;;;;;;;;5014458;28;20056;-71
2023/07/19 12:44:43;;;;;;;42.63;40.42;;;;;;;;;;5013852;28;20117;-71
2023/07/19 12:47:09;;;;;;;38.47;36.47;;;;;;;;;;5017050;28;20124;-71
2023/07/19 12:49:34;;;;;;;33.45;31.75;;;;;;;;;;5015797;28;20225;-70
2023/07/19 12:52:01;;;;;;;29.73;28.17;;;;;;;;;;5016209;28;20033;-71
2023/07/19 12:54:27;;;;;;;26.90;25.45;;;;;;;;;;5016090;28;20095;-71
2023/07/19 12:56:52;;;;;;;21.02;19.85;;;;;;;;;;5018089;28;20543;-70
2023/07/19 12:59:18;;;;;;;22.63;21.42;;;;;;;;;;5014098;28;20034;-71
2023/07/19 13:01:44;;;;;;;24.80;23.50;;;;;;;;;;5012523;28;20041;-71
2023/07/19 13:04:09;;;;;;;20.63;19.52;;;;;;;;;;5017924;28;20081;-71
2023/07/19 13:06:36;;;;;;;20.65;19.55;;;;;;;;;;5017777;28;20092;-71
2023/07/19 13:09:04;;;;;;;22.27;21.05;;;;;;;;;;5014213;28;20044;-71
2023/07/19 13:11:38;;;;;;;20.25;19.15;;;;;;;;;;5014635;28;20333;-71
2023/07/19 13:14:06;;;;;;;22.70;21.50;;;;;;;;;;5013952;28;20034;-69
2023/07/19 13:16:32;;;;;;;24.38;23.08;;;;;;;;;;5013402;28;20536;-69
2023/07/19 13:18:58;;;;;;;25.17;23.52;;;;;;;;;;5016573;28;20045;-71
2023/07/19 13:21:25;;;;;;;22.30;21.10;;;;;;;;;;5017153;28;20065;-72
2023/07/19 13:23:50;;;;;;;45.83;43.53;;;;;;;;;;5018070;28;20116;-70
2023/07/19 13:26:16;;;;;;;45.20;42.90;;;;;;;;;;5018482;28;20179;-70
2023/07/19 13:28:45;;;;;;;25.55;24.15;;;;;;;;;;5016938;28;20100;-72
2023/07/19 13:31:10;;;;;;;27.03;25.63;;;;;;;;;;5021734;28;20033;-72
2023/07/19 13:33:36;;;;;;;42.00;39.90;;;;;;;;;;5015063;28;20044;-70
2023/07/19 13:36:01;;;;;;;43.90;41.60;;;;;;;;;;5019696;28;20038;-71
2023/07/19 13:38:27;;;;;;;27.27;25.85;;;;;;;;;;5012206;28;20044;-73
2023/07/19 13:40:52;;;;;;;18.42;17.42;;;;;;;;;;5016024;28;20034;-71
2023/07/19 13:43:19;;;;;;;20.20;19.10;;;;;;;;;;5020082;28;20083;-69
2023/07/19 13:45:45;;;;;;;27.58;26.08;;;;;;;;;;5020103;28;20049;-69
2023/07/19 13:48:11;;;;;;;21.38;20.10;;;;;;;;;;5016222;28;20033;-72
2023/07/19 13:50:36;;;;;;;24.00;22.70;;;;;;;;;;5017716;28;20091;-73
2023/07/19 13:53:05;;;;;;;18.67;17.55;;;;;;;;;;5016486;28;20045;-73
2023/07/19 13:55:32;;;;;;;42.65;40.35;;;;;;;;;;5016382;28;20045;-73
2023/07/19 13:58:01;;;;;;;36.15;34.15;;;;;;;;;;5018744;28;20044;-73
2023/07/19 14:00:27;;;;;;;55.28;52.47;;;;;;;;;;5013353;28;20467;-72
2023/07/19 14:02:52;;;;;;;54.72;51.95;;;;;;;;;;5013868;28;20046;-73
2023/07/19 14:05:19;;;;;;;32.88;31.15;;;;;;;;;;5017382;28;20030;-72
2023/07/19 14:07:45;;;;;;;42.70;40.53;;;;;;;;;;5018995;28;20076;-69